MyTimes logo

TIMES

Webb Imagery

03/02/2007
Channel Challenge
550m Swim / 2.0km Run - Local Residents

(Click on competitor name to view personalised results)

Name
Race #
Category
Time
(h:mm:ss)
Avg Speed
km/hr
OAll
Place
Cat
Place
ROWE Mark#213Senior Male0:12:37 12.1 1 1
EVANS Brad#118Senior Male0:13:21 11.5 2 2
SORATI Ty#157Senior Male0:13:57 11 3 3
KERR Lewis#703Junior Male0:14:05 10.9 4 1
MORISON Benny#135Senior Male0:14:06 10.9 5 4
HANLEY Philip#771Male 50+0:14:06 10.9 6 1
YUSKO Daniel#200Senior Male0:14:12 10.8 7 5
ROLLAND Thierry#799Male 40-490:14:12 10.8 8 1
BUTT Chloe#330Junior Female0:14:18 10.7 9 1
PLANT Luke#800Junior Male0:14:22 10.6 10 2
STEWART Alastair#818Junior Male0:14:28 10.6 11 3
TILLEY Justin#180Senior Male0:14:30 10.6 12 6
CORBETT Jim#168Senior Male0:14:39 10.4 13 7
FLEISNER Rob#723Male 40-490:14:44 10.4 14 2
CARTER Lachlan#26Senior Male0:14:48 10.3 15 8
DALLINGER Chris#247Senior Male0:14:49 10.3 16 9
DURAND Anthony#863Male 40-490:14:51 10.3 17 3
HUTCHINSON Warwick#105Senior Male0:14:54 10.3 18 10
YUSKO Bill#871Male 50+0:14:59 10.2 19 2
MATHEWS Jack#90Senior Male0:15:27 9.9 20 11
HEWETT Noel#809Male 40-490:15:32 9.8 21 4
HOMER Ivan#720Male 40-490:15:34 9.8 22 5
CHISHOLM Andy#23Senior Male0:15:47 9.7 23 12
STOCK Adam#804Junior Male0:15:52 9.6 24 4
RIELLY Debbie#396Senior Female0:15:54 9.6 25 1
CROWE Susie#451Junior Female0:15:55 9.6 26 2
HARRISON Hamish#811Junior Male0:16:03 9.5 27 5
JUDD Alex#711Junior Male0:16:06 9.5 28 6
EISEN Nat#158Senior Male0:16:10 9.5 29 13
WILKINS Shaun#245Senior Male0:16:10 9.5 30 14
DAVIE Krystal#473Junior Female0:16:10 9.5 31 3
JUDD Gary#745Male 50+0:16:10 9.5 32 3
ZACHARAH Aidan#244Senior Male0:16:14 9.4 33 15
RYAN Daniel#100Senior Male0:16:26 9.3 34 16
BOND Marcus#60Senior Male0:16:28 9.3 35 17
OKE Tim#826Junior Male0:16:33 9.2 36 7
ROBERTSON Simon#130Senior Male0:16:42 9.2 37 18
MATTHEWS Aaron#138Senior Male0:16:49 9.1 38 19
O'KEEFFE Louise#391Senior Female0:16:52 9.1 39 2
YOUNG Shaun#243Senior Male0:16:53 9.1 40 20
MARSHALL Luke#148Senior Male0:16:57 9 41 21
CLAVERIA Sabian#72Senior Male0:17:00 9 42 22
CROWE Jessica#450Senior Female0:17:03 9 43 3
MANTEIT Alex#795Junior Male0:17:12 8.9 44 8
COOK Earl#189Senior Male0:17:18 8.8 45 23
THOMPSON David#20Senior Male0:17:24 8.8 46 24
MC FEE Andy#217Senior Male0:17:25 8.8 47 25
DAVIE Jasmine#472Junior Female0:17:27 8.8 48 4
ROBINSON Jamie#849Junior Male0:17:29 8.8 49 9
DERRICKS Lou#427Female 40-490:17:34 8.7 50 1
DAFF Geoff#773Male 50+0:17:47 8.6 51 4
EARL Lachlan#237Senior Male0:17:51 8.6 52 26
CARGILL Sam#238Senior Male0:17:51 8.6 53 27
LINFORD Rob#239Senior Male0:17:54 8.5 54 28
O'SULLIVAN Janine#343Senior Female0:17:56 8.5 55 4
MANTEIT Mark#838Male 40-490:18:01 8.5 56 6
FLEISNER Paul#758Male 50+0:18:02 8.5 57 5
WICKS Robert#50Senior Male0:18:04 8.5 58 29
HAMILTON James#856Junior Male0:18:05 8.5 59 10
HUNTER Rian#712Junior Male0:18:05 8.5 60 11
CROOKS Matthew#234Senior Male0:18:09 8.4 61 30
VIRTUE Geoff#128Senior Male0:18:21 8.3 62 31
JOHNSTONE Shane#106Senior Male0:18:25 8.3 63 32
IRWIN Alexa#471Junior Female0:18:26 8.3 64 5
HILL Jessica#438Senior Female0:18:29 8.3 65 5
CARTER Dean#761Male 50+0:18:31 8.3 66 6
STAFFORD Rachel#372Senior Female0:18:35 8.2 67 6
CHANDLER Mark#133Senior Male0:18:41 8.2 68 33
D'AQUINO Bianca#466Junior Female0:18:42 8.2 69 6
MANNING John#178Senior Male0:18:56 8.1 70 34
WRIGHT Bruce#805Male 40-490:19:05 8 71 7
MATHEWS Robert#769Male 50+0:19:05 8 72 7
MERRINS Lucy#428Junior Female0:19:15 7.9 73 7
SZEITLI Justine#419Junior Female0:19:17 7.9 74 8
MORRISON Kerry#411Female 50+0:19:23 7.9 75 1
SCOTT Beth#449Junior Female0:19:24 7.9 76 9
O'DONOHUE Mark#801Male 40-490:19:24 7.9 77 8
FITZGERALD Amy#380Senior Female0:19:28 7.9 78 7
MADDOX Rachael#414Junior Female0:19:29 7.9 79 10
BODSWORTH Prue#420Senior Female0:19:31 7.8 80 8
DAFF Jessica#421Senior Female0:19:32 7.8 81 9
SUTHERLAND Michael#233Senior Male0:19:34 7.8 82 35
FERGIE Fleur#484Junior Female0:19:43 7.8 83 11
LANGEVELD Peter#147Senior Male0:19:46 7.7 84 36
WATERSON David#203Senior Male0:19:48 7.7 85 37
TAMBURO Ailisha#481Senior Female0:19:53 7.7 86 10
MANNING Simon#787Male 40-490:20:02 7.6 87 9
LOBCZUIK Sebastian#236Senior Male0:20:05 7.6 88 38
DALLINGER Brian#820Male 50+0:20:05 7.6 89 8
WILLIAMS Peter#803Male 40-490:20:09 7.6 90 10
REDDIE Luke#251Senior Male0:20:14 7.6 91 39
ONLEY Thomas#160Senior Male0:20:19 7.5 92 40
HUNTER Jessi#332Junior Female0:20:26 7.5 93 12
LLOYD Greg#110Senior Male0:20:32 7.5 94 41
CHASTON Peter#789Male 50+0:20:33 7.4 95 9
JOHNSTON Tessa#325Junior Female0:20:38 7.4 96 13
CAMILLE Daven#825Junior Male0:20:45 7.4 97 12
ADAMS Murray#765Male 50+0:20:58 7.3 98 10
SAY Nick#117Senior Male0:20:59 7.3 99 42
SPENCER Alyn#379Senior Female0:21:02 7.3 100 11
GINNIVAN Maria#418Junior Female0:21:09 7.2 101 14
GOODE Thomas#776Male 50+0:21:22 7.2 102 11
EISEN Zac#819Junior Male0:21:24 7.1 103 13
WILLIAMSON Scott#127Senior Male0:21:27 7.1 104 43
ADKINS Susan#350Senior Female0:21:37 7.1 105 12
STELZER Hermann#788Male 50+0:21:43 7 106 12
BLACKWELL Nicole#336Senior Female0:21:44 7 107 13
WALDER Charles#860Male 40-490:21:47 7 108 11
WRIGHT Melanie#462Junior Female0:22:38 6.8 109 15
COOMBE Neil#784Male 50+0:22:45 6.7 110 13
TALBOT Emma#376Senior Female0:22:53 6.7 111 14
KEWMING Robyn#442Female 50+0:23:07 6.6 112 2
CAMENZVLI Maria#410Female 40-490:23:12 6.6 113 2
WRIGHT Phil#852Male 50+0:23:26 6.5 114 14
HOLLINS Jenny#429Senior Female0:23:57 6.4 115 15
WALKER Christine#425Female 50+0:25:16 6.1 116 3
COLLINS Bruce#129Senior Male0:25:26 6 117 44
COLE Ian#785Male 50+0:26:17 5.8 118 15
SUTHERLAND Norman#131Male 40-490:26:27 5.8 119 12
CLANCY Kendra#355Senior Female0:27:36 5.5 120 16
SUTHERLAND Jarrod#794Junior Male0:29:21 5.2 121 14
SNELL Coralie#485Female 40-490:29:29 5.2 122 3
FLOWER Melanie#426Senior Female0:29:37 5.2 123 17
BROOMHALL Jenny#397Senior Female0:31:12 4.9 124 18
STUTELEY Katrina#381Senior Female0:35:40 4.3 125 19
TREVENA Melanie#382Senior Female0:35:40 4.3 126 20